Time;durP1;ratioP1;P1;durP2;ratioP2;P2;SDS_P1;SDS_P2;PMS_P1;PMS_P2;Temp;Humidity;BMP_temperature;BMP_pressure;BME280_temperature;BME280_humidity;BME280_pressure;Samples;Min_cycle;Max_cycle;Signal;HPM_P1;HPM_P2
2023/09/07 00:01:23;;;;;;;11.65;7.90;;;;;;;20.54;56.38;95431.44;5025945;28;20034;-79
2023/09/07 00:03:48;;;;;;;8.05;7.25;;;;;;;20.58;56.41;95438.31;5027689;28;20045;-79
2023/09/07 00:06:14;;;;;;;9.68;7.60;;;;;;;20.66;56.19;95435.88;5008250;28;20036;-80
2023/09/07 00:08:39;;;;;;;10.40;8.18;;;;;;;20.63;55.78;95439.63;5026474;28;20040;-80
2023/09/07 00:11:12;;;;;;;11.88;7.35;;;;;;;20.61;55.69;95428.97;5024601;28;20692;-79
2023/09/07 00:13:37;;;;;;;8.98;6.95;;;;;;;20.60;56.17;95426.66;5010233;28;20397;-80
2023/09/07 00:16:04;;;;;;;8.45;7.10;;;;;;;20.57;56.07;95433.22;5008136;28;20041;-80
2023/09/07 00:18:30;;;;;;;8.48;6.93;;;;;;;20.56;55.79;95431.69;5009652;28;20032;-79
2023/09/07 00:20:55;;;;;;;9.30;7.07;;;;;;;20.50;55.99;95428.84;5010719;28;20042;-80
2023/09/07 00:23:21;;;;;;;8.70;7.25;;;;;;;20.48;56.00;95430.59;5028962;28;20048;-80
2023/09/07 00:25:47;;;;;;;10.20;7.47;;;;;;;20.50;55.99;95442.81;5031687;28;20415;-79
2023/09/07 00:28:12;;;;;;;10.10;7.35;;;;;;;20.50;56.06;95437.22;5028366;28;20041;-80
2023/09/07 00:30:38;;;;;;;9.68;7.45;;;;;;;20.54;56.02;95439.81;5030512;28;20025;-79
2023/09/07 00:33:03;;;;;;;7.63;6.72;;;;;;;20.52;56.15;95431.13;5011959;28;20047;-79
2023/09/07 00:35:29;;;;;;;9.45;8.00;;;;;;;20.57;55.68;95436.00;5013537;28;20033;-80
2023/09/07 00:37:54;;;;;;;8.68;7.32;;;;;;;20.55;56.02;95432.94;5029226;28;20433;-80
2023/09/07 00:40:20;;;;;;;9.00;7.32;;;;;;;20.52;56.08;95431.91;5029238;28;20025;-80
2023/09/07 00:42:46;;;;;;;10.02;7.30;;;;;;;20.60;56.24;95440.63;5029884;28;20034;-78
2023/09/07 00:45:11;;;;;;;9.70;7.38;;;;;;;20.59;56.51;95437.06;5029352;28;20480;-79
2023/09/07 00:47:37;;;;;;;12.23;7.85;;;;;;;20.57;56.27;95433.97;5029811;28;20519;-79
2023/09/07 00:50:06;;;;;;;11.82;8.07;;;;;;;20.55;56.79;95430.16;5011624;28;20060;-79
2023/09/07 00:52:32;;;;;;;9.82;8.43;;;;;;;20.43;57.42;95426.44;5029824;28;20025;-79
2023/09/07 00:54:59;;;;;;;9.75;8.50;;;;;;;20.46;57.68;95436.66;5028445;28;20031;-79
2023/09/07 00:57:25;;;;;;;10.73;8.27;;;;;;;20.47;57.70;95432.59;5029401;28;20079;-79
2023/09/07 00:59:50;;;;;;;10.77;7.88;;;;;;;20.41;57.91;95440.09;5029372;28;20029;-79
2023/09/07 01:02:15;;;;;;;9.82;8.02;;;;;;;20.46;58.13;95430.31;5028252;28;20096;-79
2023/09/07 01:04:42;;;;;;;10.88;8.52;;;;;;;20.48;58.28;95433.38;5013076;28;20095;-79
2023/09/07 01:07:17;;;;;;;9.15;8.13;;;;;;;20.42;58.35;95427.72;5027913;28;20033;-79
2023/09/07 01:09:43;;;;;;;11.00;8.68;;;;;;;20.44;58.37;95441.94;5013103;28;20029;-79
2023/09/07 01:12:14;;;;;;;10.52;9.27;;;;;;;20.33;58.65;95431.41;5027654;28;20386;-79
2023/09/07 01:14:40;;;;;;;9.48;8.48;;;;;;;20.36;58.56;95430.44;5029587;28;20064;-79
2023/09/07 01:17:05;;;;;;;11.80;8.82;;;;;;;20.35;58.68;95434.47;5012466;28;20030;-79
2023/09/07 01:19:31;;;;;;;11.82;8.68;;;;;;;20.45;58.95;95428.75;5027929;28;20033;-78
2023/09/07 01:21:57;;;;;;;11.68;8.88;;;;;;;20.47;59.13;95434.63;5012506;28;20049;-79
2023/09/07 01:24:24;;;;;;;11.45;8.82;;;;;;;20.43;58.99;95430.00;5027402;28;20439;-78
2023/09/07 01:26:50;;;;;;;12.20;9.20;;;;;;;20.43;59.33;95437.63;5012678;28;20068;-77
2023/09/07 01:29:16;;;;;;;10.45;9.35;;;;;;;20.41;59.35;95426.94;5027400;28;20061;-79
2023/09/07 01:31:42;;;;;;;12.10;9.27;;;;;;;20.40;59.43;95433.00;5028652;28;20091;-79
2023/09/07 01:34:08;;;;;;;15.80;10.18;;;;;;;20.38;59.83;95444.66;5027959;28;20435;-79
2023/09/07 01:36:34;;;;;;;12.27;9.52;;;;;;;20.24;59.66;95423.16;5028196;28;20063;-78
2023/09/07 01:38:59;;;;;;;12.07;10.00;;;;;;;20.25;59.99;95430.28;5028896;28;20108;-77
2023/09/07 01:41:25;;;;;;;10.68;9.55;;;;;;;20.27;60.08;95430.56;5028481;28;20079;-79
2023/09/07 01:43:51;;;;;;;11.20;10.00;;;;;;;20.28;60.01;95434.88;5028845;28;20122;-79
2023/09/07 01:46:16;;;;;;;13.07;9.90;;;;;;;20.21;60.42;95435.31;5027217;28;20398;-79
2023/09/07 01:48:44;;;;;;;11.23;9.20;;;;;;;20.20;60.08;95433.78;5028813;28;20026;-79
2023/09/07 01:51:10;;;;;;;14.02;10.48;;;;;;;20.25;60.33;95435.13;5027433;28;20031;-79
2023/09/07 01:53:35;;;;;;;11.43;9.85;;;;;;;20.23;60.44;95432.78;5029717;28;20798;-79
2023/09/07 01:56:00;;;;;;;11.95;9.55;;;;;;;20.23;60.19;95438.38;5044882;28;20025;-79
2023/09/07 01:58:26;;;;;;;13.55;9.85;;;;;;;20.17;60.33;95429.16;5028874;28;20049;-79
2023/09/07 02:00:58;;;;;;;12.55;9.98;;;;;;;20.17;60.50;95441.09;5030244;28;20454;-79
2023/09/07 02:03:24;;;;;;;13.15;10.02;;;;;;;20.16;60.65;95436.78;5026555;28;20065;-79
2023/09/07 02:05:49;;;;;;;11.57;10.25;;;;;;;20.19;60.30;95425.91;5029908;28;20065;-79
2023/09/07 02:08:15;;;;;;;16.23;10.50;;;;;;;20.18;60.24;95430.69;5027149;28;20048;-79
2023/09/07 02:10:40;;;;;;;12.77;10.20;;;;;;;20.16;60.26;95428.41;5029955;28;20510;-79
2023/09/07 02:13:05;;;;;;;15.05;10.68;;;;;;;20.19;60.31;95432.25;5033438;28;20314;-80
2023/09/07 02:15:31;;;;;;;11.98;10.15;;;;;;;20.19;60.55;95434.28;5027457;28;20120;-80
2023/09/07 02:17:56;;;;;;;14.15;10.57;;;;;;;20.15;60.22;95431.69;5028236;28;20096;-79
2023/09/07 02:20:22;;;;;;;12.35;10.27;;;;;;;20.21;60.55;95438.09;5009877;28;20456;-79
2023/09/07 02:22:47;;;;;;;13.23;10.35;;;;;;;20.19;60.46;95435.03;5027838;28;20065;-79
2023/09/07 02:25:12;;;;;;;13.40;10.43;;;;;;;20.23;60.64;95449.53;5026550;28;20026;-79
2023/09/07 02:27:38;;;;;;;13.05;10.50;;;;;;;20.16;60.75;95430.44;5027878;28;20022;-79
2023/09/07 02:30:04;;;;;;;12.20;10.70;;;;;;;20.28;60.50;95446.06;5026356;28;20487;-79
2023/09/07 02:32:31;;;;;;;12.05;10.82;;;;;;;20.31;60.52;95433.94;5027483;28;20033;-79
2023/09/07 02:34:57;;;;;;;11.30;10.10;;;;;;;20.28;60.74;95440.47;5044072;28;20107;-79
2023/09/07 02:37:23;;;;;;;12.27;10.40;;;;;;;20.31;60.60;95441.53;5026862;28;20036;-79
2023/09/07 02:39:48;;;;;;;12.45;11.20;;;;;;;20.29;60.59;95442.00;5027586;28;20029;-79
2023/09/07 02:42:13;;;;;;;13.85;10.93;;;;;;;20.30;60.64;95445.56;5026218;28;20030;-79
2023/09/07 02:44:39;;;;;;;13.30;10.93;;;;;;;20.24;61.47;95445.50;5026896;28;20041;-79
2023/09/07 02:47:04;;;;;;;12.88;11.20;;;;;;;20.29;61.17;95442.00;5027723;28;20163;-79
2023/09/07 02:49:30;;;;;;;14.02;10.95;;;;;;;20.22;61.08;95445.22;5011066;28;20045;-79
2023/09/07 02:51:56;;;;;;;13.85;11.32;;;;;;;20.19;61.42;95443.41;5026817;28;20025;-80
2023/09/07 02:54:22;;;;;;;12.07;10.80;;;;;;;20.18;61.48;95441.84;5027158;28;20385;-79
2023/09/07 02:56:47;;;;;;;14.68;11.77;;;;;;;20.14;61.23;95438.53;5027293;28;20036;-79
2023/09/07 02:59:13;;;;;;;14.32;11.50;;;;;;;20.13;61.63;95446.13;5026182;28;20076;-80
2023/09/07 03:01:39;;;;;;;17.13;11.52;;;;;;;19.98;61.93;95439.06;5028487;28;20025;-80
2023/09/07 03:04:05;;;;;;;13.38;11.82;;;;;;;19.98;62.01;95450.22;5025755;28;20072;-78
2023/09/07 03:06:31;;;;;;;15.27;12.45;;;;;;;19.98;62.31;95453.78;5027208;28;20025;-79
2023/09/07 03:08:56;;;;;;;13.23;11.65;;;;;;;19.91;62.37;95447.84;5026006;28;20025;-79
2023/09/07 03:11:22;;;;;;;13.40;11.15;;;;;;;19.84;62.35;95449.81;5027452;28;20025;-79
2023/09/07 03:13:47;;;;;;;15.00;12.43;;;;;;;19.84;62.53;95452.59;5026555;28;20093;-79
2023/09/07 03:16:13;;;;;;;14.68;12.30;;;;;;;19.76;62.85;95453.47;5027770;28;20507;-80
2023/09/07 03:18:38;;;;;;;15.60;12.40;;;;;;;19.66;62.91;95444.44;5028445;28;20071;-80
2023/09/07 03:21:04;;;;;;;14.75;11.95;;;;;;;19.64;63.39;95449.75;5032356;28;20521;-80
2023/09/07 03:23:30;;;;;;;16.02;12.23;;;;;;;19.60;63.00;95438.00;5014097;28;20033;-80
2023/09/07 03:25:56;;;;;;;15.23;12.05;;;;;;;19.70;63.50;95447.03;5028582;28;20024;-79
2023/09/07 03:28:21;;;;;;;15.10;11.50;;;;;;;19.75;63.37;95447.13;5030212;28;20027;-80
2023/09/07 03:30:47;;;;;;;13.90;12.13;;;;;;;19.81;63.46;95458.34;5012100;28;20115;-79
2023/09/07 03:33:12;;;;;;;15.68;12.48;;;;;;;19.80;63.51;95452.03;5029902;28;20025;-80
2023/09/07 03:35:38;;;;;;;14.32;11.68;;;;;;;19.80;63.36;95454.81;5012976;28;20454;-80
2023/09/07 03:38:03;;;;;;;17.20;13.73;;;;;;;19.80;63.67;95457.59;5046821;28;20025;-80
2023/09/07 03:40:29;;;;;;;17.55;12.82;;;;;;;19.81;63.30;95458.34;5013521;28;20400;-79
2023/09/07 03:42:54;;;;;;;13.88;12.45;;;;;;;19.77;63.87;95449.41;5046058;28;20792;-79
2023/09/07 03:45:19;;;;;;;13.65;12.02;;;;;;;19.73;63.93;95455.22;5048045;28;20021;-79
2023/09/07 03:47:45;;;;;;;17.90;12.27;;;;;;;19.62;64.27;95452.25;5046074;28;20017;-79
2023/09/07 03:50:10;;;;;;;15.18;13.15;;;;;;;19.67;64.25;95465.53;5047762;28;20031;-79
2023/09/07 03:52:36;;;;;;;16.88;12.93;;;;;;;19.76;63.87;95464.63;5012394;28;20021;-79
2023/09/07 03:55:01;;;;;;;15.13;13.00;;;;;;;19.73;64.08;95463.59;5029068;28;20024;-80
2023/09/07 03:57:27;;;;;;;15.45;12.35;;;;;;;19.76;64.20;95468.19;5047733;28;20028;-80
2023/09/07 03:59:55;;;;;;;15.13;12.88;;;;;;;19.62;64.82;95469.75;5028105;28;20029;-81
2023/09/07 04:02:21;;;;;;;16.92;13.23;;;;;;;19.50;65.08;95468.03;5029851;28;20028;-80
2023/09/07 04:04:53;;;;;;;15.63;12.63;;;;;;;19.56;65.17;95479.25;5011377;28;20036;-80
2023/09/07 04:07:19;;;;;;;15.87;12.67;;;;;;;19.52;65.72;95481.47;5046207;28;20033;-83
2023/09/07 04:09:45;;;;;;;17.15;13.50;;;;;;;19.51;65.65;95486.28;5028426;28;20029;-83
2023/09/07 04:12:10;;;;;;;17.90;13.82;;;;;;;19.45;65.56;95476.28;5029633;28;20527;-85
2023/09/07 04:14:36;;;;;;;15.75;13.80;;;;;;;19.46;66.01;95475.03;5029355;28;20120;-85
2023/09/07 04:17:02;;;;;;;17.15;13.18;;;;;;;19.42;65.98;95475.22;5028647;28;20060;-83
2023/09/07 04:19:28;;;;;;;15.85;13.00;;;;;;;19.47;66.07;95482.91;5030012;28;20029;-92
2023/09/07 04:21:53;;;;;;;14.65;12.52;;;;;;;19.42;66.49;95474.47;5028691;28;20133;-87
2023/09/07 04:24:19;;;;;;;15.77;12.35;;;;;;;19.41;66.46;95481.28;5013868;28;20037;-84
2023/09/07 04:26:44;;;;;;;17.42;13.40;;;;;;;19.37;66.48;95476.66;5011340;28;20029;-85
2023/09/07 04:29:11;;;;;;;16.27;13.48;;;;;;;19.42;66.28;95472.44;5029755;28;20025;-85
2023/09/07 04:31:37;;;;;;;16.77;13.32;;;;;;;19.38;66.84;95469.06;5029227;28;20017;-85
2023/09/07 04:34:02;;;;;;;15.32;13.48;;;;;;;19.47;66.14;95480.13;5012743;28;20025;-85
2023/09/07 04:36:28;;;;;;;16.23;13.23;;;;;;;19.47;66.33;95482.16;5013649;28;20067;-86
2023/09/07 04:38:53;;;;;;;17.50;13.13;;;;;;;19.50;66.10;95479.16;5012465;28;20120;-86
2023/09/07 04:41:19;;;;;;;15.68;13.02;;;;;;;19.49;66.01;95474.06;5030619;28;20021;-87
2023/09/07 04:43:44;;;;;;;15.68;12.77;;;;;;;19.59;66.25;95481.88;5012159;28;20032;-85
2023/09/07 04:46:11;;;;;;;17.88;12.68;;;;;;;19.67;66.11;95487.84;5013261;28;20029;-85
2023/09/07 04:48:36;;;;;;;17.33;14.18;;;;;;;19.61;66.11;95486.94;5029035;28;20514;-88
2023/09/07 04:51:03;;;;;;;14.40;12.70;;;;;;;19.64;65.90;95494.38;5029937;28;20025;-88
2023/09/07 04:53:31;;;;;;;15.25;12.77;;;;;;;19.68;65.84;95489.38;5029317;28;20047;-87
2023/09/07 04:55:57;;;;;;;14.95;12.85;;;;;;;19.67;65.87;95493.41;5028570;28;20455;-84
2023/09/07 04:58:22;;;;;;;16.48;13.10;;;;;;;19.70;65.97;95497.25;5029886;28;20032;-86
2023/09/07 05:00:48;;;;;;;17.33;13.07;;;;;;;19.70;65.89;95495.22;5011966;28;20017;-86
2023/09/07 05:03:13;;;;;;;16.02;13.48;;;;;;;19.72;65.61;95495.50;5030108;28;20032;-85
2023/09/07 05:05:39;;;;;;;18.35;13.25;;;;;;;19.71;65.65;95496.75;5012029;28;20025;-83
2023/09/07 05:08:17;;;;;;;16.75;13.15;;;;;;;19.70;66.28;95498.00;5016699;28;20241;-86
2023/09/07 05:10:42;;;;;;;15.27;13.27;;;;;;;19.68;66.11;95494.19;5016600;28;20036;-86
2023/09/07 05:13:07;;;;;;;18.02;13.13;;;;;;;19.71;65.94;95491.19;5050847;28;20492;-86
2023/09/07 05:15:33;;;;;;;17.30;13.98;;;;;;;19.67;66.20;95493.41;5033840;28;20173;-87
2023/09/07 05:17:58;;;;;;;15.35;12.85;;;;;;;19.68;65.89;95497.72;5032213;28;20036;-87
2023/09/07 05:20:24;;;;;;;15.75;13.18;;;;;;;19.73;66.03;95499.84;5016473;28;20053;-85
2023/09/07 05:22:49;;;;;;;18.63;12.73;;;;;;;19.67;65.63;95499.00;5031973;28;20029;-87
2023/09/07 05:25:15;;;;;;;17.27;14.30;;;;;;;19.68;65.54;95506.09;5051192;28;20088;-86
2023/09/07 05:27:40;;;;;;;16.33;13.43;;;;;;;19.70;65.67;95503.59;5032062;28;20124;-86
2023/09/07 05:30:06;;;;;;;15.45;12.73;;;;;;;19.70;65.85;95500.81;5034252;28;20033;-86
2023/09/07 05:32:33;;;;;;;16.23;12.82;;;;;;;19.75;65.47;95514.06;5033776;28;20083;-86
2023/09/07 05:34:58;;;;;;;14.82;12.75;;;;;;;19.79;65.62;95508.31;5049183;28;20051;-87
2023/09/07 05:37:24;;;;;;;23.08;13.13;;;;;;;19.80;65.63;95501.47;5064320;28;20120;-85
2023/09/07 05:39:49;;;;;;;15.85;13.48;;;;;;;19.83;65.38;95497.69;5051646;28;20101;-84
2023/09/07 05:42:15;;;;;;;18.10;13.23;;;;;;;19.90;64.93;95500.09;5025515;28;20028;-84
2023/09/07 05:44:40;;;;;;;17.67;13.57;;;;;;;19.95;64.36;95501.41;5015434;28;20036;-81
2023/09/07 05:47:06;;;;;;;16.17;12.70;;;;;;;19.93;64.46;95510.28;5016072;28;20028;-87
2023/09/07 05:49:31;;;;;;;17.17;13.07;;;;;;;19.98;64.21;95506.03;5032310;28;20060;-86
2023/09/07 05:51:57;;;;;;;17.30;13.13;;;;;;;19.97;64.31;95505.28;5015574;28;20021;-85
2023/09/07 05:54:22;;;;;;;14.70;13.13;;;;;;;20.00;64.03;95509.88;5032424;28;20518;-83
2023/09/07 05:56:48;;;;;;;16.05;12.70;;;;;;;19.97;64.30;95510.09;5031581;28;20029;-84
2023/09/07 05:59:13;;;;;;;16.73;13.30;;;;;;;20.03;63.99;95514.50;5039085;28;20021;-88
2023/09/07 06:01:39;;;;;;;16.67;11.80;;;;;;;20.10;63.56;95513.31;5025908;28;20021;-84
2023/09/07 06:04:05;;;;;;;16.13;11.65;;;;;;;20.12;63.66;95511.56;5054626;28;20052;-89
2023/09/07 06:06:31;;;;;;;18.60;11.63;;;;;;;20.19;63.23;95515.22;5033017;28;20076;-88
2023/09/07 06:08:58;;;;;;;18.08;11.23;;;;;;;20.27;62.64;95517.09;5016685;28;20061;-87
2023/09/07 06:11:23;;;;;;;13.40;10.63;;;;;;;20.28;62.45;95517.88;5050350;28;20021;-91
2023/09/07 06:13:49;;;;;;;12.63;9.73;;;;;;;20.42;61.39;95514.28;5015682;28;20097;-88
2023/09/07 06:16:14;;;;;;;15.23;9.85;;;;;;;20.51;60.90;95513.38;5017389;28;20029;-88
2023/09/07 06:18:40;;;;;;;15.25;9.70;;;;;;;20.60;60.28;95516.03;5014397;28;20032;-89
2023/09/07 06:21:05;;;;;;;14.02;9.93;;;;;;;20.72;60.58;95517.72;5033386;28;20055;-89
2023/09/07 06:23:31;;;;;;;11.95;9.88;;;;;;;20.90;59.55;95511.06;5015193;28;20110;-89
2023/09/07 06:25:56;;;;;;;15.93;9.77;;;;;;;21.06;59.00;95512.50;5033915;28;20041;-87
2023/09/07 06:28:22;;;;;;;11.82;8.68;;;;;;;21.25;58.32;95519.28;5032196;28;20139;-89
2023/09/07 06:30:47;;;;;;;12.95;9.80;;;;;;;21.36;58.19;95518.66;5050560;28;20032;-87
2023/09/07 06:33:13;;;;;;;12.60;10.10;;;;;;;21.42;57.76;95522.28;5032845;28;20032;-89
2023/09/07 06:35:39;;;;;;;13.45;9.43;;;;;;;21.53;57.55;95513.22;5032330;28;20067;-89
2023/09/07 06:38:04;;;;;;;12.43;9.20;;;;;;;21.64;56.83;95528.06;5032623;28;20029;-89
2023/09/07 06:40:29;;;;;;;15.70;10.40;;;;;;;21.73;56.81;95524.31;5014650;28;20029;-88
2023/09/07 06:42:57;;;;;;;11.43;9.18;;;;;;;21.85;56.21;95523.16;5016338;28;20087;-90
2023/09/07 06:45:23;;;;;;;12.00;9.77;;;;;;;21.98;55.70;95529.09;5014064;28;20519;-88
2023/09/07 06:47:50;;;;;;;14.35;9.35;;;;;;;22.11;55.39;95528.72;5050260;28;20055;-88
2023/09/07 06:50:15;;;;;;;14.63;10.32;;;;;;;22.22;55.38;95522.41;5015145;28;20029;-89
2023/09/07 06:52:41;;;;;;;13.77;9.77;;;;;;;22.30;55.25;95534.66;5015401;28;20032;-87
2023/09/07 06:55:06;;;;;;;11.80;9.68;;;;;;;22.44;55.36;95521.78;5016056;28;20510;-88
2023/09/07 06:57:33;;;;;;;13.43;9.38;;;;;;;22.62;53.32;95529.75;5030903;28;20445;-90
2023/09/07 06:59:59;;;;;;;11.02;8.13;;;;;;;22.67;51.78;95536.66;5015874;28;20017;-89
2023/09/07 07:02:24;;;;;;;10.98;8.65;;;;;;;22.74;52.54;95525.72;5030919;28;20147;-89
2023/09/07 07:04:50;;;;;;;10.40;7.50;;;;;;;22.89;51.95;95528.38;5017288;28;20499;-89
2023/09/07 07:07:16;;;;;;;10.00;7.65;;;;;;;22.98;51.01;95522.53;5016944;28;20111;-89
2023/09/07 07:09:41;;;;;;;10.93;7.35;;;;;;;23.02;50.75;95517.47;5032590;28;20087;-90
2023/09/07 07:12:07;;;;;;;11.05;7.13;;;;;;;23.17;49.59;95524.88;5015774;28;20033;-92
2023/09/07 07:14:32;;;;;;;10.20;7.47;;;;;;;23.26;49.86;95521.84;5036244;28;20025;-96
2023/09/07 07:16:58;;;;;;;9.45;7.60;;;;;;;23.37;49.68;95519.06;5056191;28;20108;-86
2023/09/07 07:19:24;;;;;;;9.55;7.80;;;;;;;23.52;48.68;95525.22;5026378;28;20100;-94
2023/09/07 07:21:50;;;;;;;9.75;7.88;;;;;;;23.61;48.44;95526.22;5053655;28;20041;-95
2023/09/07 07:24:15;;;;;;;13.98;8.63;;;;;;;23.66;48.40;95525.50;5023920;28;20035;-96
2023/09/07 07:26:41;;;;;;;11.05;7.53;;;;;;;23.73;47.41;95534.16;5064717;28;20119;-94
2023/09/07 07:29:06;;;;;;;11.73;8.02;;;;;;;23.72;47.00;95531.88;5028045;28;20031;-96
2023/09/07 07:31:32;;;;;;;9.90;7.38;;;;;;;23.63;46.96;95540.53;5057161;28;20041;-95
2023/09/07 07:33:58;;;;;;;10.18;6.90;;;;;;;23.50;47.38;95535.41;5026059;28;20025;-95
2023/09/07 07:36:23;;;;;;;9.48;8.07;;;;;;;23.44;47.38;95534.63;5050147;28;20020;-96
2023/09/07 07:38:49;;;;;;;11.27;7.20;;;;;;;23.43;47.29;95536.66;5055689;28;20100;-95
2023/09/07 07:41:14;;;;;;;9.32;7.80;;;;;;;23.49;47.71;95542.28;5042861;28;20028;-95
2023/09/07 07:43:39;;;;;;;11.60;7.38;;;;;;;23.58;46.75;95534.41;5023353;28;20029;-96
2023/09/07 07:46:05;;;;;;;8.82;7.13;;;;;;;23.63;45.49;95534.91;5021135;28;20381;-96
2023/09/07 07:48:30;;;;;;;8.77;6.60;;;;;;;23.65;45.95;95533.16;5039039;28;20025;-96
2023/09/07 07:50:56;;;;;;;8.35;5.70;;;;;;;23.68;45.31;95529.31;5019650;28;20029;-95
2023/09/07 07:53:21;;;;;;;10.52;6.40;;;;;;;23.75;45.41;95540.06;5023447;28;20033;-96
2023/09/07 07:55:48;;;;;;;8.40;6.28;;;;;;;23.78;46.13;95535.44;5020463;28;20491;-94
2023/09/07 07:58:14;;;;;;;8.73;6.20;;;;;;;23.89;45.58;95543.13;5028229;28;20413;-96
2023/09/07 08:00:40;;;;;;;9.73;6.43;;;;;;;23.90;44.16;95545.41;5021863;28;20017;-96
2023/09/07 08:03:06;;;;;;;7.07;6.15;;;;;;;23.90;44.74;95539.78;5036540;28;20082;-96
2023/09/07 08:05:33;;;;;;;8.50;5.95;;;;;;;23.98;43.54;95549.25;5035499;28;20491;-96
2023/09/07 08:07:58;;;;;;;8.25;5.72;;;;;;;23.93;43.48;95544.41;5037575;28;20186;-95
2023/09/07 08:10:23;;;;;;;7.50;5.97;;;;;;;24.04;43.64;95541.56;5041610;28;20041;-95
2023/09/07 08:12:54;;;;;;;10.07;6.45;;;;;;;24.23;44.24;95538.25;5055666;28;20025;-96
2023/09/07 08:15:21;;;;;;;9.82;5.65;;;;;;;24.41;44.45;95537.72;5039654;28;20029;-96
2023/09/07 08:17:47;;;;;;;8.93;6.07;;;;;;;24.58;43.89;95538.44;5024394;28;20419;-96
2023/09/07 08:20:13;;;;;;;8.18;5.93;;;;;;;24.77;43.57;95533.00;5039331;28;20051;-96
2023/09/07 08:22:42;;;;;;;8.00;6.00;;;;;;;25.00;42.91;95538.53;5038921;28;20051;-96
2023/09/07 08:25:08;;;;;;;6.57;4.63;;;;;;;25.11;39.47;95528.03;5026579;28;20067;-96
2023/09/07 08:27:33;;;;;;;6.30;5.20;;;;;;;25.23;39.28;95533.59;5049355;28;20029;-96
2023/09/07 08:29:59;;;;;;;10.45;5.13;;;;;;;25.17;39.59;95530.81;5044533;28;20056;-96
2023/09/07 08:32:24;;;;;;;6.43;5.10;;;;;;;25.31;40.19;95529.72;5023325;28;20024;-96
2023/09/07 08:34:50;;;;;;;8.13;5.20;;;;;;;25.42;39.65;95524.03;5036602;28;20151;-96
2023/09/07 08:37:16;;;;;;;7.53;5.28;;;;;;;25.59;39.62;95528.78;5036018;28;20021;-96
2023/09/07 08:39:41;;;;;;;11.07;5.50;;;;;;;25.72;38.48;95530.97;5019150;28;20025;-96
2023/09/07 08:42:07;;;;;;;9.60;5.35;;;;;;;25.87;38.18;95529.34;5057324;28;20032;-94
2023/09/07 08:44:33;;;;;;;7.97;5.60;;;;;;;25.94;38.17;95514.69;5041275;28;20071;-96
2023/09/07 08:47:00;;;;;;;11.55;5.47;;;;;;;26.02;38.19;95528.97;5044377;28;20063;-95
2023/09/07 08:49:25;;;;;;;8.32;4.90;;;;;;;26.24;36.67;95533.63;5043696;28;20086;-96
2023/09/07 08:51:51;;;;;;;6.38;5.00;;;;;;;25.98;36.27;95531.31;5047842;28;20025;-96
2023/09/07 08:54:17;;;;;;;6.63;4.80;;;;;;;25.92;37.12;95527.75;5037882;28;20040;-95
2023/09/07 08:56:44;;;;;;;5.60;4.90;;;;;;;25.90;36.88;95521.91;5043439;28;20018;-94
2023/09/07 08:59:09;;;;;;;9.63;5.10;;;;;;;25.95;37.05;95519.03;5036830;28;20062;-95
2023/09/07 09:01:37;;;;;;;7.50;5.18;;;;;;;25.72;37.33;95508.47;5050277;28;20081;-95
2023/09/07 09:04:02;;;;;;;7.43;4.65;;;;;;;25.66;37.78;95512.06;5057321;28;20036;-95
2023/09/07 09:06:28;;;;;;;5.88;4.65;;;;;;;25.56;37.62;95516.50;5073829;28;20017;-95
2023/09/07 09:08:56;;;;;;;9.50;5.10;;;;;;;25.68;38.21;95520.00;5041356;28;20021;-95
2023/09/07 09:11:22;;;;;;;7.20;5.05;;;;;;;25.76;37.91;95532.25;5056076;28;20021;-96
2023/09/07 09:13:49;;;;;;;7.28;5.00;;;;;;;25.82;37.97;95520.94;5038349;28;20017;-96
2023/09/07 09:16:14;;;;;;;6.97;4.50;;;;;;;25.92;36.80;95513.69;5061156;28;20113;-95
2023/09/07 09:18:57;;;;;;;6.13;4.57;;;;;;;26.11;35.74;95520.19;5056074;28;20055;-93
2023/09/07 09:21:24;;;;;;;7.78;4.68;;;;;;;25.99;35.85;95515.19;5018163;28;20077;-96
2023/09/07 09:23:51;;;;;;;10.70;5.00;;;;;;;25.92;36.71;95514.47;5051101;28;20120;-92
2023/09/07 09:26:17;;;;;;;6.28;4.70;;;;;;;26.27;36.15;95521.31;5033791;28;20036;-93
2023/09/07 09:28:46;;;;;;;7.15;5.07;;;;;;;26.39;35.34;95510.69;5033355;28;20030;-93
2023/09/07 09:31:12;;;;;;;7.35;4.80;;;;;;;26.44;35.46;95513.50;5036619;28;20458;-95
2023/09/07 09:33:39;;;;;;;7.95;5.40;;;;;;;26.70;35.43;95507.28;5035534;28;20020;-94
2023/09/07 09:36:06;;;;;;;8.65;5.00;;;;;;;26.71;35.24;95502.41;5036231;28;20032;-94
2023/09/07 09:38:32;;;;;;;10.23;4.88;;;;;;;26.78;34.40;95501.03;5041602;28;20017;-95
2023/09/07 09:40:58;;;;;;;7.03;4.63;;;;;;;26.73;34.46;95500.59;5026724;28;20029;-95
2023/09/07 09:43:25;;;;;;;7.63;4.55;;;;;;;26.68;34.53;95503.47;5024151;28;20059;-95
2023/09/07 09:45:53;;;;;;;6.97;4.78;;;;;;;26.60;35.74;95500.47;5038316;28;20033;-95
2023/09/07 09:48:19;;;;;;;10.00;4.65;;;;;;;26.77;35.11;95502.34;5035615;28;20033;-94
2023/09/07 09:50:48;;;;;;;5.80;4.38;;;;;;;26.91;34.72;95493.44;5034178;28;20113;-95
2023/09/07 09:53:18;;;;;;;8.10;4.10;;;;;;;27.01;34.48;95493.81;5018181;28;20029;-95
2023/09/07 09:55:47;;;;;;;6.68;4.07;;;;;;;27.12;34.32;95496.53;5018326;28;20072;-95
2023/09/07 09:58:16;;;;;;;7.07;4.07;;;;;;;27.09;33.89;95499.66;5034592;28;20486;-96
2023/09/07 10:00:47;;;;;;;6.60;4.00;;;;;;;26.98;34.21;95484.38;5034389;28;20086;-95
2023/09/07 10:03:26;;;;;;;6.25;4.25;;;;;;;26.93;33.82;95495.72;5016947;28;20040;-95
2023/09/07 10:05:52;;;;;;;8.35;4.60;;;;;;;26.88;33.65;95490.91;5034895;28;20170;-95
2023/09/07 10:08:19;;;;;;;5.65;4.50;;;;;;;26.74;33.92;95485.19;5034148;28;20041;-93
2023/09/07 10:10:49;;;;;;;8.77;5.15;;;;;;;26.76;34.18;95483.91;5034571;28;20388;-93
2023/09/07 10:13:15;;;;;;;7.85;4.60;;;;;;;26.64;33.99;95486.84;5018176;28;20031;-95
2023/09/07 10:15:41;;;;;;;7.38;4.95;;;;;;;26.52;34.50;95479.81;5033278;28;20391;-95
2023/09/07 10:18:10;;;;;;;6.82;4.70;;;;;;;26.41;34.48;95479.94;5034393;28;20112;-94
2023/09/07 10:20:55;;;;;;;7.97;5.00;;;;;;;26.25;34.95;95469.59;5049672;28;20037;-95
2023/09/07 10:23:21;;;;;;;7.13;5.00;;;;;;;26.26;35.51;95471.09;5051872;28;20032;-95
2023/09/07 10:25:49;;;;;;;6.95;4.88;;;;;;;26.26;35.06;95471.09;5033446;28;20028;-94
2023/09/07 10:28:22;;;;;;;7.38;4.68;;;;;;;26.25;35.45;95473.16;5034604;28;20031;-95
2023/09/07 10:31:03;;;;;;;8.65;4.15;;;;;;;25.98;35.04;95458.09;5034208;28;20106;-96
2023/09/07 10:33:29;;;;;;;6.90;4.68;;;;;;;25.93;35.62;95475.81;5021635;28;20021;-95
2023/09/07 10:35:56;;;;;;;6.60;5.05;;;;;;;25.89;35.39;95475.31;5019348;28;20061;-96
2023/09/07 10:38:22;;;;;;;7.25;5.07;;;;;;;26.03;35.61;95462.13;5036039;28;20047;-95
2023/09/07 10:40:48;;;;;;;6.57;5.25;;;;;;;25.93;36.02;95462.47;5036258;28;20028;-96
2023/09/07 10:43:13;;;;;;;7.38;4.88;;;;;;;25.95;35.90;95462.72;5034762;28;20044;-95
2023/09/07 10:45:39;;;;;;;7.75;5.25;;;;;;;26.02;35.75;95464.19;5034146;28;20032;-96
2023/09/07 10:48:06;;;;;;;7.78;4.80;;;;;;;25.97;35.56;95472.69;5033278;28;20109;-95
2023/09/07 10:50:42;;;;;;;7.85;4.22;;;;;;;25.94;35.70;95472.44;5049090;28;20116;-95
2023/09/07 10:53:07;;;;;;;5.45;4.50;;;;;;;26.00;35.70;95463.19;5017910;28;20483;-95
2023/09/07 10:55:38;;;;;;;8.95;4.97;;;;;;;25.95;35.76;95461.94;5048797;28;20029;-94
2023/09/07 10:58:04;;;;;;;7.05;4.57;;;;;;;25.98;35.73;95465.75;5034422;28;20028;-89
2023/09/07 11:00:29;;;;;;;7.00;4.40;;;;;;;26.10;35.37;95461.56;5015418;28;20120;-96
2023/09/07 11:02:55;;;;;;;7.78;4.88;;;;;;;26.34;35.14;95466.44;5060976;28;20029;-95
2023/09/07 11:05:20;;;;;;;5.72;4.25;;;;;;;26.69;34.34;95466.28;5051915;28;20398;-95
2023/09/07 11:07:45;;;;;;;8.05;4.65;;;;;;;26.92;34.57;95460.38;5062062;28;20033;-96
2023/09/07 11:10:11;;;;;;;6.20;4.60;;;;;;;26.70;34.46;95467.06;5061774;28;20017;-96
2023/09/07 11:12:40;;;;;;;5.88;4.53;;;;;;;26.59;35.25;95467.19;5056644;28;20021;-96
2023/09/07 11:15:09;;;;;;;6.97;4.05;;;;;;;26.55;35.16;95467.47;5021337;28;20036;-94
2023/09/07 11:17:38;;;;;;;5.68;3.85;;;;;;;26.46;35.49;95453.75;5056946;28;20021;-96
2023/09/07 11:20:07;;;;;;;8.15;4.10;;;;;;;26.55;35.21;95472.34;5034685;28;20025;-95